sensor_id;sensor_type;location;lat;lon;timestamp;P1;durP1;ratioP1;P2;durP2;ratioP2
77078;SDS011;66004;55.096;38.760;2023-04-25T00:02:04;14.75;;;3.78;;
77078;SDS011;66004;55.096;38.760;2023-04-25T00:04:30;8.77;;;3.70;;
77078;SDS011;66004;55.096;38.760;2023-04-25T00:06:58;11.15;;;4.20;;
77078;SDS011;66004;55.096;38.760;2023-04-25T00:09:26;14.48;;;3.92;;
77078;SDS011;66004;55.096;38.760;2023-04-25T00:11:52;12.75;;;4.47;;
77078;SDS011;66004;55.096;38.760;2023-04-25T00:14:18;17.95;;;3.65;;
77078;SDS011;66004;55.096;38.760;2023-04-25T00:16:43;17.98;;;4.07;;
77078;SDS011;66004;55.096;38.760;2023-04-25T00:19:09;18.45;;;4.75;;
77078;SDS011;66004;55.096;38.760;2023-04-25T00:21:35;13.70;;;4.32;;
77078;SDS011;66004;55.096;38.760;2023-04-25T00:24:02;9.45;;;4.03;;
77078;SDS011;66004;55.096;38.760;2023-04-25T00:26:28;7.53;;;3.80;;
77078;SDS011;66004;55.096;38.760;2023-04-25T00:28:54;22.20;;;4.57;;
77078;SDS011;66004;55.096;38.760;2023-04-25T00:31:19;11.25;;;3.65;;
77078;SDS011;66004;55.096;38.760;2023-04-25T00:33:45;7.97;;;4.20;;
77078;SDS011;66004;55.096;38.760;2023-04-25T00:36:10;9.60;;;3.67;;
77078;SDS011;66004;55.096;38.760;2023-04-25T00:38:36;13.85;;;4.47;;
77078;SDS011;66004;55.096;38.760;2023-04-25T00:41:04;9.93;;;4.00;;
77078;SDS011;66004;55.096;38.760;2023-04-25T00:43:31;7.97;;;3.63;;
77078;SDS011;66004;55.096;38.760;2023-04-25T00:45:57;8.80;;;3.50;;
77078;SDS011;66004;55.096;38.760;2023-04-25T00:48:25;10.55;;;4.22;;
77078;SDS011;66004;55.096;38.760;2023-04-25T00:50:52;8.48;;;4.20;;
77078;SDS011;66004;55.096;38.760;2023-04-25T00:53:19;7.80;;;3.58;;
77078;SDS011;66004;55.096;38.760;2023-04-25T00:55:46;8.65;;;4.20;;
77078;SDS011;66004;55.096;38.760;2023-04-25T00:58:11;9.27;;;4.63;;
77078;SDS011;66004;55.096;38.760;2023-04-25T01:00:37;8.35;;;3.80;;
77078;SDS011;66004;55.096;38.760;2023-04-25T01:03:03;7.28;;;4.00;;
77078;SDS011;66004;55.096;38.760;2023-04-25T01:05:28;10.98;;;4.53;;
77078;SDS011;66004;55.096;38.760;2023-04-25T01:07:54;12.57;;;5.05;;
77078;SDS011;66004;55.096;38.760;2023-04-25T01:10:20;12.10;;;4.75;;
77078;SDS011;66004;55.096;38.760;2023-04-25T01:12:46;8.73;;;3.95;;
77078;SDS011;66004;55.096;38.760;2023-04-25T01:15:12;9.18;;;3.92;;
77078;SDS011;66004;55.096;38.760;2023-04-25T01:17:37;7.88;;;4.65;;
77078;SDS011;66004;55.096;38.760;2023-04-25T01:20:04;7.85;;;4.28;;
77078;SDS011;66004;55.096;38.760;2023-04-25T01:22:32;13.95;;;4.45;;
77078;SDS011;66004;55.096;38.760;2023-04-25T01:24:58;12.93;;;6.90;;
77078;SDS011;66004;55.096;38.760;2023-04-25T01:27:25;7.95;;;4.45;;
77078;SDS011;66004;55.096;38.760;2023-04-25T01:29:51;11.38;;;4.65;;
77078;SDS011;66004;55.096;38.760;2023-04-25T01:32:17;12.60;;;4.15;;
77078;SDS011;66004;55.096;38.760;2023-04-25T01:34:43;11.65;;;4.47;;
77078;SDS011;66004;55.096;38.760;2023-04-25T01:37:08;10.02;;;4.30;;
77078;SDS011;66004;55.096;38.760;2023-04-25T01:39:34;12.52;;;4.60;;
77078;SDS011;66004;55.096;38.760;2023-04-25T01:42:00;13.20;;;4.15;;
77078;SDS011;66004;55.096;38.760;2023-04-25T01:44:26;6.65;;;3.67;;
77078;SDS011;66004;55.096;38.760;2023-04-25T01:46:52;10.90;;;3.80;;
77078;SDS011;66004;55.096;38.760;2023-04-25T01:49:17;9.88;;;3.50;;
77078;SDS011;66004;55.096;38.760;2023-04-25T01:51:43;8.52;;;4.15;;
77078;SDS011;66004;55.096;38.760;2023-04-25T01:54:09;14.52;;;5.45;;
77078;SDS011;66004;55.096;38.760;2023-04-25T01:56:37;12.50;;;4.53;;
77078;SDS011;66004;55.096;38.760;2023-04-25T01:59:03;13.50;;;3.75;;
77078;SDS011;66004;55.096;38.760;2023-04-25T02:01:29;7.38;;;4.10;;
77078;SDS011;66004;55.096;38.760;2023-04-25T02:03:55;14.60;;;4.35;;
77078;SDS011;66004;55.096;38.760;2023-04-25T02:06:20;14.27;;;4.35;;
77078;SDS011;66004;55.096;38.760;2023-04-25T02:11:11;10.80;;;4.85;;
77078;SDS011;66004;55.096;38.760;2023-04-25T02:13:36;11.52;;;5.03;;
77078;SDS011;66004;55.096;38.760;2023-04-25T02:16:02;15.23;;;5.13;;
77078;SDS011;66004;55.096;38.760;2023-04-25T02:20:53;10.35;;;4.72;;
77078;SDS011;66004;55.096;38.760;2023-04-25T02:23:19;11.35;;;4.63;;
77078;SDS011;66004;55.096;38.760;2023-04-25T02:25:45;14.18;;;5.85;;
77078;SDS011;66004;55.096;38.760;2023-04-25T02:30:36;13.00;;;4.65;;
77078;SDS011;66004;55.096;38.760;2023-04-25T02:33:01;10.98;;;4.63;;
77078;SDS011;66004;55.096;38.760;2023-04-25T02:35:27;15.77;;;4.05;;
77078;SDS011;66004;55.096;38.760;2023-04-25T02:37:53;11.18;;;4.00;;
77078;SDS011;66004;55.096;38.760;2023-04-25T02:40:18;12.95;;;3.95;;
77078;SDS011;66004;55.096;38.760;2023-04-25T02:45:10;13.60;;;3.97;;
77078;SDS011;66004;55.096;38.760;2023-04-25T02:47:36;15.57;;;4.03;;
77078;SDS011;66004;55.096;38.760;2023-04-25T02:52:24;14.30;;;4.10;;
77078;SDS011;66004;55.096;38.760;2023-04-25T02:54:50;11.50;;;4.07;;
77078;SDS011;66004;55.096;38.760;2023-04-25T02:59:41;18.20;;;4.78;;
77078;SDS011;66004;55.096;38.760;2023-04-25T03:02:06;16.98;;;4.82;;
77078;SDS011;66004;55.096;38.760;2023-04-25T03:06:58;15.93;;;5.00;;
77078;SDS011;66004;55.096;38.760;2023-04-25T03:11:49;34.13;;;5.50;;
77078;SDS011;66004;55.096;38.760;2023-04-25T03:16:40;17.02;;;5.05;;
77078;SDS011;66004;55.096;38.760;2023-04-25T03:21:32;13.63;;;4.93;;
77078;SDS011;66004;55.096;38.760;2023-04-25T03:23:58;17.20;;;5.10;;
77078;SDS011;66004;55.096;38.760;2023-04-25T03:26:24;11.25;;;4.93;;
77078;SDS011;66004;55.096;38.760;2023-04-25T03:28:50;12.35;;;5.15;;
77078;SDS011;66004;55.096;38.760;2023-04-25T03:33:40;18.13;;;5.28;;
77078;SDS011;66004;55.096;38.760;2023-04-25T03:38:32;19.77;;;4.72;;
77078;SDS011;66004;55.096;38.760;2023-04-25T03:40:57;16.92;;;5.40;;
77078;SDS011;66004;55.096;38.760;2023-04-25T03:45:48;12.32;;;4.03;;
77078;SDS011;66004;55.096;38.760;2023-04-25T03:50:39;14.13;;;4.93;;
77078;SDS011;66004;55.096;38.760;2023-04-25T03:55:30;13.70;;;4.70;;
77078;SDS011;66004;55.096;38.760;2023-04-25T04:00:23;17.67;;;4.70;;
77078;SDS011;66004;55.096;38.760;2023-04-25T04:02:48;13.23;;;4.32;;
77078;SDS011;66004;55.096;38.760;2023-04-25T04:05:14;11.85;;;4.53;;
77078;SDS011;66004;55.096;38.760;2023-04-25T04:07:39;17.83;;;5.63;;
77078;SDS011;66004;55.096;38.760;2023-04-25T04:10:07;12.93;;;4.50;;
77078;SDS011;66004;55.096;38.760;2023-04-25T04:12:36;16.65;;;4.70;;
77078;SDS011;66004;55.096;38.760;2023-04-25T04:15:05;22.00;;;5.10;;
77078;SDS011;66004;55.096;38.760;2023-04-25T04:17:31;19.83;;;5.63;;
77078;SDS011;66004;55.096;38.760;2023-04-25T04:19:57;20.25;;;4.88;;
77078;SDS011;66004;55.096;38.760;2023-04-25T04:22:23;14.30;;;4.65;;
77078;SDS011;66004;55.096;38.760;2023-04-25T04:24:49;47.83;;;7.68;;
77078;SDS011;66004;55.096;38.760;2023-04-25T04:27:15;15.80;;;6.32;;
77078;SDS011;66004;55.096;38.760;2023-04-25T04:29:44;36.97;;;6.35;;
77078;SDS011;66004;55.096;38.760;2023-04-25T04:32:11;18.30;;;4.63;;
77078;SDS011;66004;55.096;38.760;2023-04-25T04:34:38;12.20;;;4.43;;
77078;SDS011;66004;55.096;38.760;2023-04-25T04:37:04;28.00;;;5.85;;
77078;SDS011;66004;55.096;38.760;2023-04-25T04:39:31;17.23;;;5.10;;
77078;SDS011;66004;55.096;38.760;2023-04-25T04:41:57;23.52;;;4.60;;
77078;SDS011;66004;55.096;38.760;2023-04-25T04:44:23;27.40;;;5.30;;
77078;SDS011;66004;55.096;38.760;2023-04-25T04:46:50;14.77;;;3.97;;
77078;SDS011;66004;55.096;38.760;2023-04-25T04:49:16;23.30;;;4.60;;
77078;SDS011;66004;55.096;38.760;2023-04-25T04:51:42;27.20;;;4.90;;
77078;SDS011;66004;55.096;38.760;2023-04-25T04:54:09;20.88;;;4.07;;
77078;SDS011;66004;55.096;38.760;2023-04-25T04:56:35;21.27;;;4.68;;
77078;SDS011;66004;55.096;38.760;2023-04-25T04:59:00;17.85;;;4.15;;
77078;SDS011;66004;55.096;38.760;2023-04-25T05:01:28;12.88;;;4.85;;
77078;SDS011;66004;55.096;38.760;2023-04-25T05:03:55;11.15;;;5.07;;
77078;SDS011;66004;55.096;38.760;2023-04-25T05:06:25;24.90;;;5.70;;
77078;SDS011;66004;55.096;38.760;2023-04-25T05:08:51;18.17;;;5.00;;
77078;SDS011;66004;55.096;38.760;2023-04-25T05:11:18;16.40;;;4.90;;
77078;SDS011;66004;55.096;38.760;2023-04-25T05:13:44;13.05;;;5.20;;
77078;SDS011;66004;55.096;38.760;2023-04-25T05:16:10;23.70;;;5.75;;
77078;SDS011;66004;55.096;38.760;2023-04-25T05:18:37;13.18;;;4.30;;
77078;SDS011;66004;55.096;38.760;2023-04-25T05:21:02;12.80;;;4.70;;
77078;SDS011;66004;55.096;38.760;2023-04-25T05:23:28;11.07;;;3.80;;
77078;SDS011;66004;55.096;38.760;2023-04-25T05:25:55;10.05;;;3.92;;
77078;SDS011;66004;55.096;38.760;2023-04-25T05:28:21;13.02;;;4.20;;
77078;SDS011;66004;55.096;38.760;2023-04-25T05:30:46;11.50;;;5.20;;
77078;SDS011;66004;55.096;38.760;2023-04-25T05:33:12;16.05;;;4.50;;
77078;SDS011;66004;55.096;38.760;2023-04-25T05:35:37;23.30;;;5.55;;
77078;SDS011;66004;55.096;38.760;2023-04-25T05:38:03;11.52;;;4.38;;
77078;SDS011;66004;55.096;38.760;2023-04-25T05:40:29;18.42;;;4.82;;
77078;SDS011;66004;55.096;38.760;2023-04-25T05:42:54;12.68;;;4.82;;
77078;SDS011;66004;55.096;38.760;2023-04-25T05:45:20;9.80;;;4.00;;
77078;SDS011;66004;55.096;38.760;2023-04-25T05:47:45;16.60;;;4.88;;
77078;SDS011;66004;55.096;38.760;2023-04-25T05:50:11;18.45;;;4.70;;
77078;SDS011;66004;55.096;38.760;2023-04-25T05:52:36;16.50;;;5.28;;
77078;SDS011;66004;55.096;38.760;2023-04-25T05:55:02;19.75;;;5.68;;
77078;SDS011;66004;55.096;38.760;2023-04-25T05:57:27;15.05;;;4.85;;
77078;SDS011;66004;55.096;38.760;2023-04-25T05:59:53;22.20;;;4.05;;
77078;SDS011;66004;55.096;38.760;2023-04-25T06:02:19;10.23;;;3.60;;
77078;SDS011;66004;55.096;38.760;2023-04-25T06:04:46;13.85;;;3.40;;
77078;SDS011;66004;55.096;38.760;2023-04-25T06:07:12;9.88;;;2.90;;
77078;SDS011;66004;55.096;38.760;2023-04-25T06:09:38;31.30;;;4.63;;
77078;SDS011;66004;55.096;38.760;2023-04-25T06:12:05;7.03;;;2.72;;
77078;SDS011;66004;55.096;38.760;2023-04-25T06:14:31;7.72;;;2.33;;
77078;SDS011;66004;55.096;38.760;2023-04-25T06:16:56;5.75;;;2.30;;
77078;SDS011;66004;55.096;38.760;2023-04-25T06:19:22;10.75;;;2.72;;
77078;SDS011;66004;55.096;38.760;2023-04-25T06:21:47;5.93;;;2.40;;
77078;SDS011;66004;55.096;38.760;2023-04-25T06:24:13;5.82;;;2.05;;
77078;SDS011;66004;55.096;38.760;2023-04-25T06:26:38;6.88;;;2.53;;
77078;SDS011;66004;55.096;38.760;2023-04-25T06:29:04;7.18;;;2.95;;
77078;SDS011;66004;55.096;38.760;2023-04-25T06:31:29;6.18;;;2.33;;
77078;SDS011;66004;55.096;38.760;2023-04-25T06:33:57;7.53;;;2.45;;
77078;SDS011;66004;55.096;38.760;2023-04-25T06:36:23;5.20;;;2.60;;
77078;SDS011;66004;55.096;38.760;2023-04-25T06:38:52;8.75;;;2.80;;
77078;SDS011;66004;55.096;38.760;2023-04-25T06:41:18;5.25;;;2.30;;
77078;SDS011;66004;55.096;38.760;2023-04-25T06:43:44;13.93;;;2.90;;
77078;SDS011;66004;55.096;38.760;2023-04-25T06:46:09;10.15;;;2.80;;
77078;SDS011;66004;55.096;38.760;2023-04-25T06:48:35;9.70;;;3.00;;
77078;SDS011;66004;55.096;38.760;2023-04-25T06:51:01;11.85;;;2.83;;
77078;SDS011;66004;55.096;38.760;2023-04-25T06:53:27;7.75;;;2.65;;
77078;SDS011;66004;55.096;38.760;2023-04-25T06:55:52;7.63;;;2.75;;
77078;SDS011;66004;55.096;38.760;2023-04-25T06:58:18;8.27;;;3.10;;
77078;SDS011;66004;55.096;38.760;2023-04-25T07:00:43;7.10;;;2.10;;
77078;SDS011;66004;55.096;38.760;2023-04-25T07:03:09;8.70;;;2.20;;
77078;SDS011;66004;55.096;38.760;2023-04-25T07:05:34;25.52;;;3.00;;
77078;SDS011;66004;55.096;38.760;2023-04-25T07:08:00;5.18;;;1.85;;
77078;SDS011;66004;55.096;38.760;2023-04-25T07:10:25;5.20;;;2.22;;
77078;SDS011;66004;55.096;38.760;2023-04-25T07:12:51;5.22;;;1.67;;
77078;SDS011;66004;55.096;38.760;2023-04-25T07:15:17;8.48;;;2.03;;
77078;SDS011;66004;55.096;38.760;2023-04-25T07:17:42;10.90;;;2.40;;
77078;SDS011;66004;55.096;38.760;2023-04-25T07:20:08;3.63;;;1.60;;
77078;SDS011;66004;55.096;38.760;2023-04-25T07:22:35;6.20;;;2.40;;
77078;SDS011;66004;55.096;38.760;2023-04-25T07:25:02;6.78;;;2.35;;
77078;SDS011;66004;55.096;38.760;2023-04-25T07:27:29;9.55;;;2.45;;
77078;SDS011;66004;55.096;38.760;2023-04-25T07:29:55;4.60;;;1.92;;
77078;SDS011;66004;55.096;38.760;2023-04-25T07:32:21;9.75;;;1.77;;
77078;SDS011;66004;55.096;38.760;2023-04-25T07:34:47;8.27;;;3.17;;
77078;SDS011;66004;55.096;38.760;2023-04-25T07:37:12;12.68;;;2.45;;
77078;SDS011;66004;55.096;38.760;2023-04-25T07:39:39;5.43;;;2.17;;
77078;SDS011;66004;55.096;38.760;2023-04-25T07:42:04;24.80;;;5.32;;
77078;SDS011;66004;55.096;38.760;2023-04-25T07:44:32;8.45;;;2.40;;
77078;SDS011;66004;55.096;38.760;2023-04-25T07:47:03;3.75;;;2.25;;
77078;SDS011;66004;55.096;38.760;2023-04-25T07:49:35;27.27;;;4.05;;
77078;SDS011;66004;55.096;38.760;2023-04-25T07:52:02;11.75;;;3.35;;
77078;SDS011;66004;55.096;38.760;2023-04-25T07:54:29;6.97;;;2.85;;
77078;SDS011;66004;55.096;38.760;2023-04-25T07:56:55;7.22;;;2.50;;
77078;SDS011;66004;55.096;38.760;2023-04-25T07:59:21;9.20;;;3.88;;
77078;SDS011;66004;55.096;38.760;2023-04-25T08:01:47;5.65;;;2.75;;
77078;SDS011;66004;55.096;38.760;2023-04-25T08:04:12;7.53;;;3.00;;
77078;SDS011;66004;55.096;38.760;2023-04-25T08:06:38;5.38;;;2.67;;
77078;SDS011;66004;55.096;38.760;2023-04-25T08:09:03;8.90;;;3.42;;
77078;SDS011;66004;55.096;38.760;2023-04-25T08:11:29;8.23;;;2.90;;
77078;SDS011;66004;55.096;38.760;2023-04-25T08:13:55;18.23;;;3.50;;
77078;SDS011;66004;55.096;38.760;2023-04-25T08:16:20;5.93;;;3.00;;
77078;SDS011;66004;55.096;38.760;2023-04-25T08:18:46;8.27;;;3.35;;
77078;SDS011;66004;55.096;38.760;2023-04-25T08:21:12;5.43;;;2.72;;
77078;SDS011;66004;55.096;38.760;2023-04-25T08:23:38;10.88;;;2.92;;
77078;SDS011;66004;55.096;38.760;2023-04-25T08:26:04;11.23;;;3.13;;
77078;SDS011;66004;55.096;38.760;2023-04-25T08:28:32;4.72;;;2.92;;
77078;SDS011;66004;55.096;38.760;2023-04-25T08:30:58;8.15;;;3.33;;
77078;SDS011;66004;55.096;38.760;2023-04-25T08:33:23;7.38;;;3.17;;
77078;SDS011;66004;55.096;38.760;2023-04-25T08:35:49;8.25;;;3.58;;
77078;SDS011;66004;55.096;38.760;2023-04-25T08:38:15;8.77;;;3.08;;
77078;SDS011;66004;55.096;38.760;2023-04-25T08:40:40;11.75;;;3.35;;
77078;SDS011;66004;55.096;38.760;2023-04-25T08:43:08;7.75;;;2.97;;
77078;SDS011;66004;55.096;38.760;2023-04-25T08:45:38;12.05;;;3.70;;
77078;SDS011;66004;55.096;38.760;2023-04-25T08:48:10;7.88;;;2.97;;
77078;SDS011;66004;55.096;38.760;2023-04-25T08:52:39;14.90;;;3.85;;
77078;SDS011;66004;55.096;38.760;2023-04-25T08:55:10;20.50;;;4.38;;
77078;SDS011;66004;55.096;38.760;2023-04-25T08:57:37;16.33;;;3.90;;
77078;SDS011;66004;55.096;38.760;2023-04-25T09:00:04;11.10;;;3.15;;
77078;SDS011;66004;55.096;38.760;2023-04-25T09:02:33;6.97;;;3.00;;
77078;SDS011;66004;55.096;38.760;2023-04-25T09:04:58;9.27;;;3.15;;
77078;SDS011;66004;55.096;38.760;2023-04-25T09:07:24;9.10;;;3.45;;
77078;SDS011;66004;55.096;38.760;2023-04-25T09:09:50;7.10;;;3.30;;
77078;SDS011;66004;55.096;38.760;2023-04-25T09:12:19;18.80;;;3.78;;
77078;SDS011;66004;55.096;38.760;2023-04-25T09:15:00;7.68;;;3.45;;
77078;SDS011;66004;55.096;38.760;2023-04-25T09:17:31;16.65;;;3.42;;
77078;SDS011;66004;55.096;38.760;2023-04-25T09:20:05;14.40;;;3.13;;
77078;SDS011;66004;55.096;38.760;2023-04-25T09:22:34;5.93;;;3.08;;
77078;SDS011;66004;55.096;38.760;2023-04-25T09:25:02;9.70;;;3.38;;
77078;SDS011;66004;55.096;38.760;2023-04-25T09:27:29;12.00;;;3.42;;
77078;SDS011;66004;55.096;38.760;2023-04-25T09:29:58;12.10;;;3.58;;
77078;SDS011;66004;55.096;38.760;2023-04-25T09:32:27;11.32;;;3.13;;
77078;SDS011;66004;55.096;38.760;2023-04-25T09:34:53;10.07;;;2.67;;
77078;SDS011;66004;55.096;38.760;2023-04-25T09:37:21;5.03;;;2.75;;
77078;SDS011;66004;55.096;38.760;2023-04-25T09:39:53;8.90;;;2.92;;
77078;SDS011;66004;55.096;38.760;2023-04-25T09:42:23;5.82;;;3.38;;
77078;SDS011;66004;55.096;38.760;2023-04-25T09:44:54;5.30;;;2.90;;
77078;SDS011;66004;55.096;38.760;2023-04-25T09:47:22;7.15;;;2.78;;
77078;SDS011;66004;55.096;38.760;2023-04-25T09:49:49;24.77;;;3.25;;
77078;SDS011;66004;55.096;38.760;2023-04-25T09:52:20;8.35;;;2.63;;
77078;SDS011;66004;55.096;38.760;2023-04-25T09:54:49;6.07;;;2.30;;
77078;SDS011;66004;55.096;38.760;2023-04-25T09:57:19;6.70;;;2.60;;
77078;SDS011;66004;55.096;38.760;2023-04-25T09:59:47;8.23;;;2.80;;
77078;SDS011;66004;55.096;38.760;2023-04-25T10:02:13;8.02;;;2.85;;
77078;SDS011;66004;55.096;38.760;2023-04-25T10:04:41;4.47;;;2.78;;
77078;SDS011;66004;55.096;38.760;2023-04-25T10:07:09;4.00;;;3.00;;
77078;SDS011;66004;55.096;38.760;2023-04-25T10:09:36;5.05;;;2.58;;
77078;SDS011;66004;55.096;38.760;2023-04-25T10:12:05;6.07;;;2.97;;
77078;SDS011;66004;55.096;38.760;2023-04-25T10:14:32;10.80;;;2.88;;
77078;SDS011;66004;55.096;38.760;2023-04-25T10:16:58;6.68;;;2.75;;
77078;SDS011;66004;55.096;38.760;2023-04-25T10:19:24;24.58;;;3.47;;
77078;SDS011;66004;55.096;38.760;2023-04-25T10:22:07;8.48;;;3.55;;
77078;SDS011;66004;55.096;38.760;2023-04-25T10:24:39;18.13;;;4.15;;
77078;SDS011;66004;55.096;38.760;2023-04-25T10:27:06;7.22;;;2.88;;
77078;SDS011;66004;55.096;38.760;2023-04-25T10:29:32;8.98;;;3.47;;
77078;SDS011;66004;55.096;38.760;2023-04-25T10:31:58;10.60;;;3.70;;
77078;SDS011;66004;55.096;38.760;2023-04-25T10:34:24;5.22;;;3.08;;
77078;SDS011;66004;55.096;38.760;2023-04-25T10:37:03;8.57;;;3.20;;
77078;SDS011;66004;55.096;38.760;2023-04-25T10:39:29;7.68;;;3.10;;
77078;SDS011;66004;55.096;38.760;2023-04-25T10:41:56;6.90;;;3.30;;
77078;SDS011;66004;55.096;38.760;2023-04-25T10:44:23;10.68;;;3.42;;
77078;SDS011;66004;55.096;38.760;2023-04-25T10:46:51;17.13;;;3.50;;
77078;SDS011;66004;55.096;38.760;2023-04-25T10:52:16;10.00;;;3.03;;
77078;SDS011;66004;55.096;38.760;2023-04-25T10:54:59;5.03;;;3.33;;
77078;SDS011;66004;55.096;38.760;2023-04-25T10:57:39;18.80;;;6.68;;
77078;SDS011;66004;55.096;38.760;2023-04-25T11:00:18;16.30;;;4.00;;
77078;SDS011;66004;55.096;38.760;2023-04-25T11:02:55;8.07;;;3.45;;
77078;SDS011;66004;55.096;38.760;2023-04-25T11:05:28;8.77;;;3.45;;
77078;SDS011;66004;55.096;38.760;2023-04-25T11:07:57;4.72;;;3.08;;
77078;SDS011;66004;55.096;38.760;2023-04-25T11:10:30;5.80;;;3.42;;
77078;SDS011;66004;55.096;38.760;2023-04-25T11:12:57;6.15;;;3.40;;
77078;SDS011;66004;55.096;38.760;2023-04-25T11:15:23;8.35;;;3.30;;
77078;SDS011;66004;55.096;38.760;2023-04-25T11:17:53;7.88;;;3.22;;
77078;SDS011;66004;55.096;38.760;2023-04-25T11:20:20;8.88;;;3.30;;
77078;SDS011;66004;55.096;38.760;2023-04-25T11:22:46;4.85;;;2.88;;
77078;SDS011;66004;55.096;38.760;2023-04-25T11:25:13;4.07;;;2.38;;
77078;SDS011;66004;55.096;38.760;2023-04-25T11:27:56;4.70;;;2.60;;
77078;SDS011;66004;55.096;38.760;2023-04-25T11:30:23;7.30;;;2.72;;
77078;SDS011;66004;55.096;38.760;2023-04-25T11:32:50;5.03;;;2.50;;
77078;SDS011;66004;55.096;38.760;2023-04-25T11:35:17;6.10;;;2.70;;
77078;SDS011;66004;55.096;38.760;2023-04-25T11:37:43;5.90;;;2.25;;
77078;SDS011;66004;55.096;38.760;2023-04-25T11:40:09;7.45;;;2.42;;
77078;SDS011;66004;55.096;38.760;2023-04-25T11:42:46;5.20;;;2.67;;
77078;SDS011;66004;55.096;38.760;2023-04-25T11:45:12;5.85;;;2.63;;
77078;SDS011;66004;55.096;38.760;2023-04-25T11:47:38;9.40;;;3.00;;
77078;SDS011;66004;55.096;38.760;2023-04-25T11:50:05;9.48;;;2.20;;
77078;SDS011;66004;55.096;38.760;2023-04-25T11:55:06;7.40;;;2.40;;
77078;SDS011;66004;55.096;38.760;2023-04-25T11:57:38;5.80;;;2.28;;
77078;SDS011;66004;55.096;38.760;2023-04-25T12:00:08;7.88;;;3.05;;
77078;SDS011;66004;55.096;38.760;2023-04-25T12:02:36;4.68;;;2.95;;
77078;SDS011;66004;55.096;38.760;2023-04-25T12:05:02;6.65;;;2.63;;
77078;SDS011;66004;55.096;38.760;2023-04-25T12:07:33;10.35;;;3.15;;
77078;SDS011;66004;55.096;38.760;2023-04-25T12:09:59;8.27;;;3.13;;
77078;SDS011;66004;55.096;38.760;2023-04-25T12:12:27;11.55;;;3.17;;
77078;SDS011;66004;55.096;38.760;2023-04-25T12:15:07;7.93;;;3.75;;
77078;SDS011;66004;55.096;38.760;2023-04-25T12:17:34;6.32;;;3.47;;
77078;SDS011;66004;55.096;38.760;2023-04-25T12:20:00;7.45;;;3.67;;
77078;SDS011;66004;55.096;38.760;2023-04-25T12:22:32;14.15;;;3.67;;
77078;SDS011;66004;55.096;38.760;2023-04-25T12:24:58;9.20;;;4.00;;
77078;SDS011;66004;55.096;38.760;2023-04-25T12:27:23;8.52;;;3.78;;
77078;SDS011;66004;55.096;38.760;2023-04-25T12:29:51;7.00;;;3.50;;
77078;SDS011;66004;55.096;38.760;2023-04-25T12:32:21;9.40;;;4.13;;
77078;SDS011;66004;55.096;38.760;2023-04-25T12:34:47;8.55;;;3.97;;
77078;SDS011;66004;55.096;38.760;2023-04-25T12:37:12;4.97;;;3.20;;
77078;SDS011;66004;55.096;38.760;2023-04-25T12:39:38;8.77;;;3.22;;
77078;SDS011;66004;55.096;38.760;2023-04-25T12:42:04;8.30;;;2.80;;
77078;SDS011;66004;55.096;38.760;2023-04-25T12:44:29;8.23;;;3.20;;
77078;SDS011;66004;55.096;38.760;2023-04-25T12:46:55;7.63;;;2.55;;
77078;SDS011;66004;55.096;38.760;2023-04-25T12:49:21;11.23;;;2.22;;
77078;SDS011;66004;55.096;38.760;2023-04-25T12:51:47;14.20;;;1.92;;
77078;SDS011;66004;55.096;38.760;2023-04-25T12:54:13;7.90;;;1.30;;
77078;SDS011;66004;55.096;38.760;2023-04-25T12:56:39;6.38;;;1.42;;
77078;SDS011;66004;55.096;38.760;2023-04-25T12:59:05;8.65;;;1.50;;
77078;SDS011;66004;55.096;38.760;2023-04-25T13:01:31;9.73;;;1.65;;
77078;SDS011;66004;55.096;38.760;2023-04-25T15:33:55;6.47;;;2.30;;
77078;SDS011;66004;55.096;38.760;2023-04-25T15:36:21;14.88;;;2.25;;
77078;SDS011;66004;55.096;38.760;2023-04-25T15:38:46;4.03;;;1.83;;
77078;SDS011;66004;55.096;38.760;2023-04-25T15:41:12;4.28;;;1.60;;
77078;SDS011;66004;55.096;38.760;2023-04-25T15:43:37;3.78;;;2.15;;
77078;SDS011;66004;55.096;38.760;2023-04-25T15:48:48;6.20;;;2.22;;
77078;SDS011;66004;55.096;38.760;2023-04-25T15:51:14;3.38;;;2.10;;
77078;SDS011;66004;55.096;38.760;2023-04-25T15:53:40;8.02;;;2.22;;
77078;SDS011;66004;55.096;38.760;2023-04-25T15:56:05;3.22;;;2.25;;
77078;SDS011;66004;55.096;38.760;2023-04-25T15:58:31;6.90;;;2.53;;
77078;SDS011;66004;55.096;38.760;2023-04-25T16:00:56;6.43;;;2.60;;
77078;SDS011;66004;55.096;38.760;2023-04-25T16:03:22;7.35;;;2.28;;
77078;SDS011;66004;55.096;38.760;2023-04-25T16:05:48;5.60;;;2.83;;
77078;SDS011;66004;55.096;38.760;2023-04-25T16:08:13;8.57;;;2.63;;
77078;SDS011;66004;55.096;38.760;2023-04-25T16:10:39;5.28;;;2.60;;
77078;SDS011;66004;55.096;38.760;2023-04-25T16:13:05;6.03;;;2.00;;
77078;SDS011;66004;55.096;38.760;2023-04-25T16:15:30;9.25;;;2.50;;
77078;SDS011;66004;55.096;38.760;2023-04-25T16:17:56;5.43;;;2.70;;
77078;SDS011;66004;55.096;38.760;2023-04-25T16:20:22;8.07;;;2.15;;
77078;SDS011;66004;55.096;38.760;2023-04-25T16:22:47;5.22;;;2.60;;
77078;SDS011;66004;55.096;38.760;2023-04-25T16:25:13;4.13;;;2.35;;
77078;SDS011;66004;55.096;38.760;2023-04-25T16:27:38;5.18;;;3.22;;
77078;SDS011;66004;55.096;38.760;2023-04-25T16:30:05;4.72;;;2.88;;
77078;SDS011;66004;55.096;38.760;2023-04-25T16:32:32;7.07;;;2.97;;
77078;SDS011;66004;55.096;38.760;2023-04-25T16:34:58;6.72;;;3.15;;
77078;SDS011;66004;55.096;38.760;2023-04-25T16:37:24;6.32;;;3.22;;
77078;SDS011;66004;55.096;38.760;2023-04-25T16:39:49;6.75;;;3.20;;
77078;SDS011;66004;55.096;38.760;2023-04-25T16:42:15;4.80;;;3.25;;
77078;SDS011;66004;55.096;38.760;2023-04-25T16:44:40;7.13;;;3.50;;
77078;SDS011;66004;55.096;38.760;2023-04-25T16:47:06;6.18;;;3.47;;
77078;SDS011;66004;55.096;38.760;2023-04-25T16:49:31;6.43;;;3.58;;
77078;SDS011;66004;55.096;38.760;2023-04-25T16:51:57;8.27;;;2.80;;
77078;SDS011;66004;55.096;38.760;2023-04-25T16:54:22;7.53;;;3.58;;
77078;SDS011;66004;55.096;38.760;2023-04-25T16:56:51;6.82;;;3.00;;
77078;SDS011;66004;55.096;38.760;2023-04-25T16:59:16;5.30;;;3.00;;
77078;SDS011;66004;55.096;38.760;2023-04-25T17:01:42;5.60;;;2.78;;
77078;SDS011;66004;55.096;38.760;2023-04-25T17:04:08;5.95;;;2.83;;
77078;SDS011;66004;55.096;38.760;2023-04-25T17:06:33;6.00;;;3.15;;
77078;SDS011;66004;55.096;38.760;2023-04-25T17:08:59;6.45;;;3.75;;
77078;SDS011;66004;55.096;38.760;2023-04-25T17:11:25;4.80;;;3.13;;
77078;SDS011;66004;55.096;38.760;2023-04-25T17:13:51;5.35;;;3.03;;
77078;SDS011;66004;55.096;38.760;2023-04-25T17:16:19;5.43;;;2.92;;
77078;SDS011;66004;55.096;38.760;2023-04-25T17:18:50;7.78;;;3.70;;
77078;SDS011;66004;55.096;38.760;2023-04-25T17:21:16;7.50;;;4.22;;
77078;SDS011;66004;55.096;38.760;2023-04-25T17:23:42;6.07;;;3.40;;
77078;SDS011;66004;55.096;38.760;2023-04-25T17:26:12;6.93;;;3.50;;
77078;SDS011;66004;55.096;38.760;2023-04-25T17:28:38;4.70;;;3.00;;
77078;SDS011;66004;55.096;38.760;2023-04-25T17:31:06;4.82;;;3.20;;
77078;SDS011;66004;55.096;38.760;2023-04-25T17:33:32;4.57;;;3.05;;
77078;SDS011;66004;55.096;38.760;2023-04-25T17:35:57;6.88;;;3.45;;
77078;SDS011;66004;55.096;38.760;2023-04-25T17:38:23;5.38;;;3.30;;
77078;SDS011;66004;55.096;38.760;2023-04-25T17:40:49;4.72;;;3.08;;
77078;SDS011;66004;55.096;38.760;2023-04-25T17:43:14;6.55;;;3.72;;
77078;SDS011;66004;55.096;38.760;2023-04-25T17:45:40;4.07;;;3.10;;